createdAt,value
2023-05-22T00:01:02.374Z,48.58
2023-05-22T00:03:29.144Z,48.72
2023-05-22T00:05:56.006Z,48.43
2023-05-22T00:08:22.713Z,48.50
2023-05-22T00:10:49.564Z,48.93
2023-05-22T00:13:16.348Z,48.97
2023-05-22T00:15:43.075Z,48.71
2023-05-22T00:18:09.896Z,48.47
2023-05-22T00:20:36.885Z,48.97
2023-05-22T00:23:04.380Z,48.77
2023-05-22T00:25:31.219Z,48.72
2023-05-22T00:27:58.042Z,48.53
2023-05-22T00:30:24.813Z,49.08
2023-05-22T00:32:51.733Z,48.78
2023-05-22T00:35:18.581Z,48.45
2023-05-22T00:37:45.379Z,48.67
2023-05-22T00:40:16.202Z,48.99
2023-05-22T00:42:44.048Z,48.75
2023-05-22T00:45:14.402Z,49.10
2023-05-22T00:47:41.652Z,48.95
2023-05-22T00:50:09.861Z,48.68
2023-05-22T00:52:38.290Z,49.13
2023-05-22T00:55:05.439Z,48.83
2023-05-22T00:57:32.134Z,49.02
2023-05-22T00:59:58.919Z,48.82
2023-05-22T01:02:25.719Z,48.54
2023-05-22T01:04:52.430Z,48.75
2023-05-22T01:07:19.148Z,48.94
2023-05-22T01:09:45.858Z,48.58
2023-05-22T01:12:29.752Z,48.86
2023-05-22T01:15:09.007Z,49.18
2023-05-22T01:17:53.780Z,48.69
2023-05-22T01:20:43.707Z,48.81
2023-05-22T01:23:25.102Z,48.64
2023-05-22T01:26:21.356Z,48.68
2023-05-22T01:29:08.680Z,49.04
2023-05-22T01:31:39.274Z,49.01
2023-05-22T01:34:06.199Z,48.78
2023-05-22T01:36:34.461Z,49.19
2023-05-22T01:39:01.300Z,48.98
2023-05-22T01:41:29.317Z,49.25
2023-05-22T01:43:56.106Z,49.30
2023-05-22T01:46:26.558Z,49.16
2023-05-22T01:48:53.395Z,48.64
2023-05-22T01:51:45.525Z,48.75
2023-05-22T01:54:21.344Z,49.06
2023-05-22T01:56:52.238Z,48.90
2023-05-22T01:59:27.964Z,49.21
2023-05-22T02:01:54.772Z,48.69
2023-05-22T02:04:21.726Z,48.66
2023-05-22T02:06:48.450Z,48.90
2023-05-22T02:09:15.328Z,48.98
2023-05-22T02:11:42.079Z,49.04
2023-05-22T02:14:09.110Z,48.58
2023-05-22T02:16:35.953Z,48.71
2023-05-22T02:19:02.780Z,48.86
2023-05-22T02:21:29.574Z,48.91
2023-05-22T02:23:56.396Z,48.87
2023-05-22T02:26:23.230Z,49.05
2023-05-22T02:28:50.037Z,48.71
2023-05-22T02:31:16.903Z,49.02
2023-05-22T02:33:44.194Z,48.66
2023-05-22T02:36:10.949Z,48.90
2023-05-22T02:38:37.718Z,48.50
2023-05-22T02:41:04.695Z,48.96
2023-05-22T02:43:34.490Z,48.56
2023-05-22T02:46:01.470Z,48.83
2023-05-22T02:48:28.361Z,48.79
2023-05-22T02:50:55.352Z,48.78
2023-05-22T02:53:22.142Z,48.83
2023-05-22T02:55:48.892Z,48.39
2023-05-22T02:58:15.653Z,48.46
2023-05-22T03:00:42.481Z,48.51
2023-05-22T03:03:09.282Z,48.42
2023-05-22T03:05:36.205Z,48.47
2023-05-22T03:08:02.980Z,48.48
2023-05-22T03:10:29.779Z,49.06
2023-05-22T03:12:56.519Z,49.04
2023-05-22T03:15:23.276Z,49.07
2023-05-22T03:17:50.140Z,48.52
2023-05-22T03:20:17.105Z,48.94
2023-05-22T03:22:44.511Z,48.50
2023-05-22T03:25:11.381Z,48.29
2023-05-22T03:27:39.575Z,48.35
2023-05-22T03:30:07.172Z,48.58
2023-05-22T03:32:34.132Z,48.35
2023-05-22T03:35:00.963Z,48.14
2023-05-22T03:37:27.711Z,48.18
2023-05-22T03:39:54.442Z,48.33
2023-05-22T03:42:21.212Z,48.18
2023-05-22T03:44:48.033Z,48.18
2023-05-22T03:47:14.878Z,48.09
2023-05-22T03:49:41.745Z,48.19
2023-05-22T03:52:09.917Z,48.61
2023-05-22T03:54:36.736Z,48.53
2023-05-22T03:57:03.670Z,48.15
2023-05-22T03:59:30.470Z,48.28
2023-05-22T04:01:57.348Z,48.29
2023-05-22T04:04:24.291Z,48.29
2023-05-22T04:06:51.106Z,48.43
2023-05-22T04:09:17.942Z,47.88
2023-05-22T04:11:44.800Z,47.89
2023-05-22T04:14:11.642Z,48.09
2023-05-22T04:16:38.421Z,48.00
2023-05-22T04:19:05.225Z,47.96
2023-05-22T04:21:32.061Z,47.81
2023-05-22T04:23:58.800Z,48.36
2023-05-22T04:26:25.555Z,47.72
2023-05-22T04:28:52.361Z,48.33
2023-05-22T04:31:19.163Z,48.04
2023-05-22T04:33:45.919Z,48.35
2023-05-22T04:36:12.766Z,47.97
2023-05-22T04:38:39.698Z,48.51
2023-05-22T04:41:06.432Z,48.47
2023-05-22T04:43:33.167Z,47.84
2023-05-22T04:45:59.993Z,48.04
2023-05-22T04:48:26.780Z,48.19
2023-05-22T04:50:53.654Z,48.41
2023-05-22T04:53:20.403Z,48.57
2023-05-22T04:55:47.156Z,49.07
2023-05-22T04:58:13.998Z,48.89
2023-05-22T05:00:40.931Z,48.50
2023-05-22T05:03:08.037Z,48.75
2023-05-22T05:05:34.983Z,49.21
2023-05-22T05:08:01.768Z,49.37
2023-05-22T05:10:28.621Z,49.13
2023-05-22T05:12:55.330Z,49.55
2023-05-22T05:15:22.101Z,49.60
2023-05-22T05:17:48.884Z,49.92
2023-05-22T05:20:15.734Z,50.08
2023-05-22T05:22:42.512Z,49.34
2023-05-22T05:25:10.959Z,49.46
2023-05-22T05:27:38.466Z,49.72
2023-05-22T05:30:05.717Z,49.70
2023-05-22T05:32:32.523Z,49.67
2023-05-22T05:34:59.278Z,49.56
2023-05-22T05:37:26.059Z,49.52
2023-05-22T05:39:52.863Z,49.46
2023-05-22T05:42:19.719Z,49.41
2023-05-22T05:44:46.581Z,49.33
2023-05-22T05:47:13.349Z,49.67
2023-05-22T05:49:40.211Z,49.84
2023-05-22T05:52:07.161Z,50.68
2023-05-22T05:54:33.942Z,50.47
2023-05-22T05:57:00.694Z,51.34
2023-05-22T05:59:27.546Z,52.03
2023-05-22T06:01:54.400Z,52.74
2023-05-22T06:04:21.157Z,52.85
2023-05-22T06:06:47.881Z,53.21
2023-05-22T06:09:14.733Z,52.46
2023-05-22T06:11:41.564Z,52.71
2023-05-22T06:14:08.358Z,53.10
2023-05-22T06:16:35.274Z,52.64
2023-05-22T06:19:02.181Z,52.23
2023-05-22T06:21:29.083Z,52.38
2023-05-22T06:23:55.932Z,52.01
2023-05-22T06:26:22.709Z,52.41
2023-05-22T06:28:49.472Z,52.23
2023-05-22T06:31:16.227Z,52.66
2023-05-22T06:33:43.275Z,52.55
2023-05-22T06:36:10.378Z,52.15
2023-05-22T06:38:37.357Z,52.47
2023-05-22T06:41:04.486Z,52.31
2023-05-22T06:43:31.331Z,52.13
2023-05-22T06:45:58.071Z,51.83
2023-05-22T06:48:24.802Z,52.06
2023-05-22T06:50:51.593Z,52.09
2023-05-22T06:53:18.383Z,51.95
2023-05-22T06:55:45.129Z,52.28
2023-05-22T06:58:11.910Z,52.25
2023-05-22T07:00:38.850Z,51.99
2023-05-22T07:03:05.910Z,52.06
2023-05-22T07:05:32.683Z,52.93
2023-05-22T07:07:59.505Z,52.85
2023-05-22T07:10:26.266Z,53.16
2023-05-22T07:12:53.522Z,52.22
2023-05-22T07:15:20.363Z,53.04
2023-05-22T07:17:47.239Z,53.07
2023-05-22T07:20:13.996Z,53.94
2023-05-22T07:22:40.751Z,53.52
2023-05-22T07:25:07.785Z,54.45
2023-05-22T07:27:34.567Z,55.01
2023-05-22T07:30:01.269Z,54.78
2023-05-22T07:32:28.198Z,55.00
2023-05-22T07:34:54.984Z,55.00
2023-05-22T07:37:21.752Z,54.50
2023-05-22T07:39:48.551Z,54.72
2023-05-22T07:42:15.362Z,54.75
2023-05-22T07:44:42.202Z,54.53
2023-05-22T07:47:08.971Z,54.81
2023-05-22T07:49:35.778Z,54.51
2023-05-22T07:52:02.521Z,54.52
2023-05-22T07:54:29.315Z,54.23
2023-05-22T07:56:56.297Z,54.13
2023-05-22T07:59:23.231Z,54.20
2023-05-22T08:01:50.066Z,54.26
2023-05-22T08:04:16.986Z,53.79
2023-05-22T08:06:43.937Z,53.65
2023-05-22T08:09:10.740Z,53.55
2023-05-22T08:11:39.696Z,53.83
2023-05-22T08:14:06.661Z,53.27
2023-05-22T08:16:33.502Z,52.95
2023-05-22T08:19:03.587Z,52.89
2023-05-22T08:21:30.454Z,53.17
2023-05-22T08:23:57.308Z,52.91
2023-05-22T08:26:24.059Z,52.82
2023-05-22T08:28:50.851Z,52.96
2023-05-22T08:31:17.702Z,52.79
2023-05-22T08:33:44.580Z,52.35
2023-05-22T08:36:11.415Z,52.53
2023-05-22T08:38:38.179Z,52.47
2023-05-22T08:41:05.008Z,52.50
2023-05-22T08:43:31.788Z,51.89
2023-05-22T08:46:05.560Z,52.16
2023-05-22T08:48:32.779Z,52.32
2023-05-22T08:51:03.538Z,51.76
2023-05-22T08:53:33.046Z,51.69
2023-05-22T08:55:59.814Z,51.38
2023-05-22T08:58:26.573Z,51.26
2023-05-22T09:00:53.579Z,51.03
2023-05-22T09:03:20.511Z,51.26
2023-05-22T09:05:47.415Z,51.25
2023-05-22T09:08:20.465Z,51.03
2023-05-22T09:10:47.910Z,51.07
2023-05-22T09:13:24.366Z,50.88
2023-05-22T09:15:51.150Z,51.32
2023-05-22T09:18:17.946Z,51.17
2023-05-22T09:20:44.740Z,50.77
2023-05-22T09:23:12.602Z,50.56
2023-05-22T09:25:39.358Z,50.60
2023-05-22T09:28:06.086Z,50.61
2023-05-22T09:30:34.887Z,50.45
2023-05-22T09:33:01.842Z,50.54
2023-05-22T09:35:28.630Z,50.83
2023-05-22T09:37:55.430Z,50.47
2023-05-22T09:40:22.272Z,50.29
2023-05-22T09:42:49.018Z,50.34
2023-05-22T09:45:15.724Z,50.90
2023-05-22T09:47:42.581Z,50.81
2023-05-22T09:50:09.771Z,50.75
2023-05-22T09:52:37.683Z,50.53
2023-05-22T09:55:07.963Z,50.49
2023-05-22T09:57:44.729Z,50.34
2023-05-22T10:00:14.914Z,50.78
2023-05-22T10:02:43.930Z,50.60
2023-05-22T10:05:10.830Z,50.80
2023-05-22T10:07:43.652Z,50.54
2023-05-22T10:10:11.713Z,50.54
2023-05-22T10:12:44.948Z,50.38
2023-05-22T10:15:11.921Z,50.74
2023-05-22T10:17:38.766Z,50.79
2023-05-22T10:20:06.259Z,50.50
2023-05-22T10:22:33.111Z,50.37
2023-05-22T10:24:59.878Z,50.10
2023-05-22T10:27:26.661Z,50.22
2023-05-22T10:30:13.055Z,50.62
2023-05-22T10:32:42.743Z,50.23
2023-05-22T10:35:24.736Z,50.27
2023-05-22T10:38:17.562Z,50.46
2023-05-22T10:40:44.827Z,50.56
2023-05-22T10:43:11.700Z,50.12
2023-05-22T10:45:38.500Z,50.35
2023-05-22T10:48:06.251Z,50.50
2023-05-22T10:50:34.046Z,50.09
2023-05-22T10:53:23.200Z,50.24
2023-05-22T10:55:54.199Z,50.38
2023-05-22T10:58:28.221Z,50.36
2023-05-22T11:01:14.236Z,50.25
2023-05-22T11:04:00.663Z,50.07
2023-05-22T11:06:34.729Z,49.87
2023-05-22T11:09:20.185Z,50.08
2023-05-22T11:11:47.064Z,49.76
2023-05-22T11:14:16.727Z,50.07
2023-05-22T11:16:43.574Z,49.94
2023-05-22T11:19:22.535Z,49.87
2023-05-22T11:21:51.133Z,49.87
2023-05-22T11:24:18.402Z,49.88
2023-05-22T11:26:45.308Z,49.91
2023-05-22T11:29:12.090Z,49.95
2023-05-22T11:31:38.940Z,49.59
2023-05-22T11:34:05.820Z,49.57
2023-05-22T11:36:32.601Z,49.66
2023-05-22T11:38:59.525Z,49.54
2023-05-22T11:41:35.599Z,49.00
2023-05-22T11:44:02.483Z,49.21
2023-05-22T11:46:29.324Z,49.19
2023-05-22T11:48:56.761Z,49.46
2023-05-22T11:51:23.553Z,49.24
2023-05-22T11:53:50.311Z,49.23
2023-05-22T11:56:20.067Z,48.81
2023-05-22T11:58:48.759Z,49.02
2023-05-22T12:01:15.538Z,48.86
2023-05-22T12:03:42.382Z,48.72
2023-05-22T12:06:09.241Z,48.49
2023-05-22T12:08:36.027Z,48.39
2023-05-22T12:11:04.649Z,48.58
2023-05-22T12:13:31.995Z,48.36
2023-05-22T12:15:59.543Z,48.43
2023-05-22T12:18:46.712Z,48.26
2023-05-22T12:21:13.527Z,48.53
2023-05-22T12:23:48.226Z,48.44
2023-05-22T12:26:15.003Z,48.34
2023-05-22T12:28:41.791Z,48.09
2023-05-22T12:31:08.581Z,48.32
2023-05-22T12:33:35.319Z,48.10
2023-05-22T12:36:07.213Z,48.02
2023-05-22T12:38:35.498Z,48.07
2023-05-22T12:41:02.486Z,47.88
2023-05-22T12:43:29.308Z,47.90
2023-05-22T12:45:56.141Z,47.55
2023-05-22T12:48:23.040Z,47.54
2023-05-22T12:50:49.832Z,47.82
2023-05-22T12:53:16.697Z,47.86
2023-05-22T12:55:43.501Z,47.63
2023-05-22T12:58:10.245Z,47.67
2023-05-22T13:00:37.065Z,47.55
2023-05-22T13:03:04.305Z,47.45
2023-05-22T13:05:31.115Z,47.38
2023-05-22T13:07:57.861Z,47.48
2023-05-22T13:10:24.688Z,47.25
2023-05-22T13:12:51.648Z,47.43
2023-05-22T13:15:18.776Z,47.07
2023-05-22T13:17:45.670Z,47.13
2023-05-22T13:20:12.556Z,46.85
2023-05-22T13:22:39.627Z,47.12
2023-05-22T13:25:06.629Z,47.03
2023-05-22T13:27:34.002Z,46.57
2023-05-22T13:30:00.973Z,46.36
2023-05-22T13:32:27.745Z,46.41
2023-05-22T13:34:54.538Z,46.69
2023-05-22T13:37:21.434Z,46.68
2023-05-22T13:39:48.264Z,46.26
2023-05-22T13:42:15.056Z,46.24
2023-05-22T13:44:41.842Z,46.19
2023-05-22T13:47:08.711Z,45.91
2023-05-22T13:49:35.503Z,45.98
2023-05-22T13:52:02.365Z,46.11
2023-05-22T13:54:29.195Z,46.16
2023-05-22T13:56:56.052Z,46.16
2023-05-22T13:59:22.900Z,46.21
2023-05-22T14:01:50.154Z,45.73
2023-05-22T14:04:17.109Z,45.76
2023-05-22T14:06:43.943Z,45.98
2023-05-22T14:09:10.806Z,46.17
2023-05-22T14:11:37.621Z,46.08
2023-05-22T14:14:04.410Z,46.47
2023-05-22T14:16:31.339Z,46.49
2023-05-22T14:18:59.581Z,46.41
2023-05-22T14:21:27.052Z,46.77
2023-05-22T14:23:54.034Z,47.03
2023-05-22T14:26:20.867Z,46.86
2023-05-22T14:28:47.831Z,47.02
2023-05-22T14:31:14.778Z,46.73
2023-05-22T14:33:41.672Z,46.81
2023-05-22T14:36:08.462Z,47.05
2023-05-22T14:38:35.296Z,46.85
2023-05-22T14:41:02.186Z,46.90
2023-05-22T14:43:29.034Z,46.82
2023-05-22T14:45:55.893Z,46.56
2023-05-22T14:48:22.836Z,46.55
2023-05-22T14:50:49.646Z,46.93
2023-05-22T14:53:16.457Z,46.92
2023-05-22T14:55:43.267Z,46.54
2023-05-22T14:58:10.039Z,47.04
2023-05-22T15:00:36.809Z,47.01
2023-05-22T15:03:03.830Z,46.79
2023-05-22T15:05:30.739Z,46.54
2023-05-22T15:07:57.575Z,46.26
2023-05-22T15:10:25.073Z,46.54
2023-05-22T15:12:52.647Z,46.38
2023-05-22T15:15:19.681Z,46.59
2023-05-22T15:17:46.565Z,46.54
2023-05-22T15:20:13.475Z,46.66
2023-05-22T15:22:40.359Z,46.45
2023-05-22T15:25:13.281Z,46.55
2023-05-22T15:27:40.338Z,46.36
2023-05-22T15:30:07.655Z,46.34
2023-05-22T15:32:34.514Z,46.27
2023-05-22T15:35:01.442Z,46.11
2023-05-22T15:37:30.303Z,46.04
2023-05-22T15:39:58.876Z,45.81
2023-05-22T15:42:25.599Z,45.90
2023-05-22T15:44:52.407Z,45.57
2023-05-22T15:47:19.168Z,46.00
2023-05-22T15:49:46.010Z,45.77
2023-05-22T15:52:12.764Z,45.95
2023-05-22T15:54:40.737Z,45.61
2023-05-22T15:57:07.542Z,45.41
2023-05-22T15:59:34.371Z,45.26
2023-05-22T16:02:01.243Z,45.15
2023-05-22T16:04:27.976Z,45.23
2023-05-22T16:06:54.780Z,45.06
2023-05-22T16:09:24.472Z,45.01
2023-05-22T16:11:51.212Z,44.89
2023-05-22T16:14:18.061Z,44.80
2023-05-22T16:16:44.818Z,44.85
2023-05-22T16:19:11.766Z,44.34
2023-05-22T16:21:38.763Z,44.30
2023-05-22T16:24:05.678Z,44.36
2023-05-22T16:26:35.643Z,43.74
2023-05-22T16:29:02.360Z,42.58
2023-05-22T16:31:29.233Z,40.57
2023-05-22T16:33:56.062Z,41.58
2023-05-22T16:36:24.111Z,43.07
2023-05-22T16:38:51.888Z,43.80
2023-05-22T16:41:18.622Z,44.23
2023-05-22T16:43:45.340Z,44.85
2023-05-22T16:46:12.173Z,45.33
2023-05-22T16:48:38.944Z,45.45
2023-05-22T16:51:05.763Z,45.37
2023-05-22T16:53:32.556Z,45.61
2023-05-22T16:55:59.278Z,45.68
2023-05-22T16:58:26.200Z,45.63
2023-05-22T17:00:53.219Z,45.73
2023-05-22T17:03:20.056Z,45.78
2023-05-22T17:05:47.195Z,45.67
2023-05-22T17:08:14.009Z,45.96
2023-05-22T17:10:40.816Z,45.85
2023-05-22T17:13:08.011Z,45.29
2023-05-22T17:15:34.819Z,45.63
2023-05-22T17:18:01.683Z,45.67
2023-05-22T17:20:28.584Z,45.90
2023-05-22T17:22:55.308Z,45.81
2023-05-22T17:25:22.101Z,45.93
2023-05-22T17:27:48.917Z,46.15
2023-05-22T17:30:18.399Z,46.03
2023-05-22T17:32:45.161Z,45.95
2023-05-22T17:35:12.044Z,46.01
2023-05-22T17:37:38.793Z,46.02
2023-05-22T17:40:06.651Z,46.11
2023-05-22T17:42:33.536Z,46.16
2023-05-22T17:45:00.294Z,46.55
2023-05-22T17:47:27.058Z,46.49
2023-05-22T17:49:53.882Z,46.44
2023-05-22T17:52:20.643Z,46.43
2023-05-22T17:54:47.484Z,46.43
2023-05-22T17:57:14.294Z,46.39
2023-05-22T17:59:41.076Z,46.54
2023-05-22T18:02:11.051Z,46.57
2023-05-22T18:04:37.802Z,47.12
2023-05-22T18:07:04.724Z,47.04
2023-05-22T18:09:31.502Z,47.32
2023-05-22T18:11:58.387Z,47.04
2023-05-22T18:14:25.216Z,46.89
2023-05-22T18:16:52.068Z,46.86
2023-05-22T18:19:18.879Z,47.29
2023-05-22T18:21:45.702Z,47.15
2023-05-22T18:24:13.237Z,47.18
2023-05-22T18:26:42.883Z,47.11
2023-05-22T18:29:09.999Z,47.51
2023-05-22T18:31:36.854Z,47.60
2023-05-22T18:34:03.735Z,48.20
2023-05-22T18:36:30.536Z,47.90
2023-05-22T18:38:57.356Z,47.98
2023-05-22T18:41:24.193Z,48.25
2023-05-22T18:43:53.689Z,48.05
2023-05-22T18:46:20.685Z,48.09
2023-05-22T18:48:47.564Z,48.45
2023-05-22T18:51:14.435Z,48.07
2023-05-22T18:53:41.287Z,48.24
2023-05-22T18:56:08.090Z,48.25
2023-05-22T18:58:34.875Z,48.62
2023-05-22T19:01:01.748Z,48.49
2023-05-22T19:03:28.736Z,48.42
2023-05-22T19:05:58.151Z,48.60
2023-05-22T19:08:24.865Z,48.63
2023-05-22T19:10:51.689Z,48.78
2023-05-22T19:13:18.480Z,48.52
2023-05-22T19:15:45.269Z,48.43
2023-05-22T19:18:12.052Z,48.42
2023-05-22T19:20:39.313Z,48.29
2023-05-22T19:23:06.369Z,48.61
2023-05-22T19:25:33.137Z,48.86
2023-05-22T19:27:59.952Z,48.65
2023-05-22T19:30:26.854Z,48.78
2023-05-22T19:32:53.698Z,48.94
2023-05-22T19:35:20.695Z,48.48
2023-05-22T19:37:47.450Z,48.55
2023-05-22T19:40:17.309Z,48.59
2023-05-22T19:42:44.146Z,49.31
2023-05-22T19:45:11.262Z,48.54
2023-05-22T19:47:38.054Z,48.86
2023-05-22T19:50:05.385Z,48.77
2023-05-22T19:52:32.304Z,48.76
2023-05-22T19:55:01.855Z,48.86
2023-05-22T19:57:28.725Z,48.82
2023-05-22T19:59:55.548Z,48.67
2023-05-22T20:02:22.300Z,48.94
2023-05-22T20:04:49.153Z,49.49
2023-05-22T20:07:15.956Z,49.45
2023-05-22T20:09:42.815Z,50.19
2023-05-22T20:12:09.656Z,49.96
2023-05-22T20:14:36.648Z,50.14
2023-05-22T20:17:03.652Z,49.88
2023-05-22T20:19:30.513Z,49.91
2023-05-22T20:21:57.426Z,49.88
2023-05-22T20:24:26.121Z,50.08
2023-05-22T20:26:53.043Z,49.97
2023-05-22T20:29:19.835Z,49.58
2023-05-22T20:31:46.815Z,50.14
2023-05-22T20:34:13.768Z,50.07
2023-05-22T20:36:40.732Z,49.55
2023-05-22T20:39:07.521Z,49.99
2023-05-22T20:41:34.422Z,49.68
2023-05-22T20:44:01.241Z,51.58
2023-05-22T20:46:28.260Z,51.87
2023-05-22T20:48:55.148Z,52.30
2023-05-22T20:51:21.971Z,52.15
2023-05-22T20:53:50.045Z,52.48
2023-05-22T20:56:16.882Z,52.49
2023-05-22T20:58:43.768Z,52.55
2023-05-22T21:01:10.595Z,52.51
2023-05-22T21:03:37.524Z,52.64
2023-05-22T21:06:04.495Z,52.79
2023-05-22T21:08:31.340Z,52.70
2023-05-22T21:10:58.198Z,53.27
2023-05-22T21:13:25.040Z,52.91
2023-05-22T21:15:51.839Z,53.06
2023-05-22T21:18:18.767Z,53.36
2023-05-22T21:20:45.865Z,53.04
2023-05-22T21:23:12.662Z,53.09
2023-05-22T21:25:39.504Z,53.20
2023-05-22T21:28:06.309Z,52.99
2023-05-22T21:30:33.144Z,53.17
2023-05-22T21:33:00.057Z,53.29
2023-05-22T21:35:27.014Z,52.98
2023-05-22T21:37:53.818Z,52.72
2023-05-22T21:40:20.587Z,52.49
2023-05-22T21:42:50.132Z,52.92
2023-05-22T21:45:16.897Z,53.02
2023-05-22T21:47:43.818Z,52.70
2023-05-22T21:50:11.174Z,52.42
2023-05-22T21:52:37.992Z,52.83
2023-05-22T21:55:05.207Z,52.79
2023-05-22T21:57:31.965Z,53.00
2023-05-22T21:59:58.758Z,52.47
2023-05-22T22:02:25.578Z,53.06
2023-05-22T22:04:52.507Z,52.73
2023-05-22T22:07:19.373Z,53.11
2023-05-22T22:09:46.267Z,52.67
2023-05-22T22:12:13.026Z,52.97
2023-05-22T22:14:39.804Z,52.82
2023-05-22T22:17:06.560Z,52.75
2023-05-22T22:19:33.499Z,52.65
2023-05-22T22:22:00.549Z,52.83
2023-05-22T22:24:27.325Z,53.04
2023-05-22T22:26:54.070Z,53.00
2023-05-22T22:29:20.831Z,53.65
2023-05-22T22:31:47.697Z,53.47
2023-05-22T22:34:14.616Z,53.16
2023-05-22T22:36:41.492Z,53.40
2023-05-22T22:39:08.234Z,53.26
2023-05-22T22:41:35.011Z,53.52
2023-05-22T22:44:01.869Z,53.30
2023-05-22T22:46:28.768Z,53.42
2023-05-22T22:48:55.775Z,53.69
2023-05-22T22:51:22.574Z,53.11
2023-05-22T22:53:49.332Z,53.37
2023-05-22T22:56:16.339Z,53.60
2023-05-22T22:58:43.082Z,53.12
2023-05-22T23:01:09.946Z,53.66
2023-05-22T23:03:36.825Z,53.78
2023-05-22T23:06:03.747Z,53.13
2023-05-22T23:08:30.608Z,53.23
2023-05-22T23:10:57.462Z,53.66
2023-05-22T23:13:24.334Z,53.40
2023-05-22T23:15:51.286Z,53.72
2023-05-22T23:18:18.278Z,53.55
2023-05-22T23:20:45.129Z,53.35
2023-05-22T23:23:11.905Z,53.01
2023-05-22T23:25:38.849Z,53.17
2023-05-22T23:28:06.665Z,53.38
2023-05-22T23:30:33.512Z,53.29
2023-05-22T23:33:00.324Z,53.27
2023-05-22T23:35:27.122Z,53.26
2023-05-22T23:37:53.877Z,53.29
2023-05-22T23:40:20.639Z,53.49
2023-05-22T23:42:47.354Z,53.31
2023-05-22T23:45:14.190Z,53.20
2023-05-22T23:47:41.046Z,53.52
2023-05-22T23:50:08.234Z,53.06
2023-05-22T23:52:35.043Z,53.14
2023-05-22T23:55:01.797Z,53.10
2023-05-22T23:57:28.581Z,53.22
2023-05-22T23:59:55.372Z,53.33
